ELY5432 LCLK-LLBG
Flight info
| Callsign | ELY5432 |
|---|---|
| Flight time | 0h 41m |
| Altitude | 23000 |
| Route | EMEDA DCT TUZIB L189 ZUKKO |
| Aircraft | B738/M-SDE2E3FGHIJ1LORVWXY/LB1 |
Departure
| Time | 2026-05-08 08:51 |
|---|---|
| Airport | Larnaca International Airport (LCLK) |
Arrival
| Time | 2026-05-08 09:32 |
|---|---|
| Airport | Ben Gurion International Airport (LLBG) |
| Time | Latitude | Longitude | Altitude | Speed | Heading |
|---|---|---|---|---|---|
| 2026-05-08 08:14 | 34.86830 | 33.60990 | 19 ft | 0 kts | 46° |
| 2026-05-08 08:38 | 34.86818 | 33.60975 | 20 ft | 4 kts | 46° |
| 2026-05-08 08:38 | 34.86800 | 33.60951 | 22 ft | 4 kts | 47° |
| 2026-05-08 08:38 | 34.86785 | 33.60925 | 22 ft | 4 kts | 78° |
| 2026-05-08 08:38 | 34.86788 | 33.60897 | 19 ft | 4 kts | 127° |
| 2026-05-08 08:39 | 34.86793 | 33.60889 | 21 ft | 0 kts | 135° |
| 2026-05-08 08:44 | 34.86775 | 33.60911 | 20 ft | 11 kts | 135° |
| 2026-05-08 08:44 | 34.86707 | 33.60992 | 19 ft | 14 kts | 135° |
| 2026-05-08 08:45 | 34.86642 | 33.61077 | 20 ft | 13 kts | 117° |
| 2026-05-08 08:45 | 34.86671 | 33.61173 | 20 ft | 13 kts | 46° |
| 2026-05-08 08:45 | 34.86738 | 33.61256 | 20 ft | 15 kts | 45° |
| 2026-05-08 08:45 | 34.86816 | 33.61350 | 19 ft | 18 kts | 45° |
| 2026-05-08 08:46 | 34.86910 | 33.61465 | 20 ft | 19 kts | 46° |
| 2026-05-08 08:46 | 34.87003 | 33.61579 | 20 ft | 19 kts | 44° |
| 2026-05-08 08:46 | 34.87092 | 33.61689 | 20 ft | 19 kts | 45° |
| 2026-05-08 08:46 | 34.87198 | 33.61818 | 20 ft | 22 kts | 45° |
| 2026-05-08 08:47 | 34.87305 | 33.61949 | 20 ft | 21 kts | 45° |
| 2026-05-08 08:47 | 34.87408 | 33.62076 | 19 ft | 21 kts | 45° |
| 2026-05-08 08:47 | 34.87522 | 33.62214 | 19 ft | 25 kts | 45° |
| 2026-05-08 08:47 | 34.87658 | 33.62379 | 21 ft | 30 kts | 44° |
| 2026-05-08 08:48 | 34.87794 | 33.62546 | 19 ft | 25 kts | 45° |
| 2026-05-08 08:48 | 34.87920 | 33.62699 | 19 ft | 26 kts | 44° |
| 2026-05-08 08:48 | 34.88044 | 33.62850 | 21 ft | 25 kts | 45° |
| 2026-05-08 08:48 | 34.88161 | 33.62993 | 20 ft | 23 kts | 46° |
| 2026-05-08 08:49 | 34.88271 | 33.63130 | 19 ft | 22 kts | 45° |
| 2026-05-08 08:49 | 34.88379 | 33.63263 | 19 ft | 22 kts | 45° |
| 2026-05-08 08:49 | 34.88442 | 33.63365 | 19 ft | 12 kts | 88° |
| 2026-05-08 08:49 | 34.88394 | 33.63444 | 20 ft | 13 kts | 136° |
| 2026-05-08 08:50 | 34.88311 | 33.63514 | 19 ft | 15 kts | 176° |
| 2026-05-08 08:50 | 34.88205 | 33.63415 | 19 ft | 46 kts | 225° |
| 2026-05-08 08:50 | 34.87772 | 33.62876 | 22 ft | 132 kts | 225° |
| 2026-05-08 08:50 | 34.86947 | 33.61884 | 153 ft | 193 kts | 224° |
| 2026-05-08 08:51 | 34.85937 | 33.60674 | 1056 ft | 209 kts | 224° |
| 2026-05-08 08:51 | 34.84928 | 33.59453 | 2357 ft | 198 kts | 225° |
| 2026-05-08 08:51 | 34.83978 | 33.58311 | 3551 ft | 189 kts | 224° |
| 2026-05-08 08:51 | 34.82990 | 33.57130 | 4117 ft | 210 kts | 225° |
| 2026-05-08 08:52 | 34.81860 | 33.55921 | 4597 ft | 223 kts | 210° |
| 2026-05-08 08:52 | 34.80257 | 33.55450 | 4490 ft | 258 kts | 173° |
| 2026-05-08 08:52 | 34.78690 | 33.56342 | 5093 ft | 253 kts | 137° |
| 2026-05-08 08:52 | 34.77420 | 33.57812 | 5795 ft | 253 kts | 133° |
| 2026-05-08 08:53 | 34.76150 | 33.59322 | 6448 ft | 258 kts | 134° |
| 2026-05-08 08:53 | 34.74792 | 33.60872 | 6872 ft | 277 kts | 135° |
| 2026-05-08 08:53 | 34.73341 | 33.62467 | 7540 ft | 285 kts | 136° |
| 2026-05-08 08:53 | 34.71848 | 33.64069 | 8338 ft | 288 kts | 137° |
| 2026-05-08 08:54 | 34.70326 | 33.65676 | 9141 ft | 292 kts | 138° |
| 2026-05-08 08:54 | 34.68777 | 33.67300 | 9920 ft | 296 kts | 138° |
| 2026-05-08 08:54 | 34.67187 | 33.68957 | 10451 ft | 310 kts | 138° |
| 2026-05-08 08:54 | 34.65483 | 33.70731 | 10610 ft | 335 kts | 139° |
| 2026-05-08 08:55 | 34.63679 | 33.72608 | 10791 ft | 357 kts | 139° |
| 2026-05-08 08:55 | 34.61614 | 33.74369 | 11179 ft | 370 kts | 156° |
| 2026-05-08 08:55 | 34.59163 | 33.75328 | 11925 ft | 371 kts | 165° |
| 2026-05-08 08:55 | 34.56682 | 33.76248 | 12613 ft | 375 kts | 161° |
| 2026-05-08 08:56 | 34.54247 | 33.77419 | 13256 ft | 380 kts | 158° |
| 2026-05-08 08:56 | 34.51791 | 33.78652 | 13904 ft | 384 kts | 159° |
| 2026-05-08 08:56 | 34.49292 | 33.79838 | 14490 ft | 388 kts | 160° |
| 2026-05-08 08:56 | 34.46692 | 33.80717 | 15024 ft | 391 kts | 174° |
| 2026-05-08 08:57 | 34.44014 | 33.80918 | 15651 ft | 391 kts | 180° |
| 2026-05-08 08:57 | 34.41282 | 33.80931 | 16254 ft | 395 kts | 181° |
| 2026-05-08 08:57 | 34.38518 | 33.80953 | 16812 ft | 399 kts | 180° |
| 2026-05-08 08:57 | 34.35725 | 33.81101 | 17369 ft | 404 kts | 178° |
| 2026-05-08 08:58 | 34.32914 | 33.81360 | 17937 ft | 408 kts | 177° |
| 2026-05-08 08:58 | 34.30073 | 33.81647 | 18486 ft | 411 kts | 177° |
| 2026-05-08 08:58 | 34.27211 | 33.81921 | 18975 ft | 414 kts | 178° |
| 2026-05-08 08:58 | 34.24325 | 33.82175 | 19480 ft | 417 kts | 178° |
| 2026-05-08 08:59 | 34.21420 | 33.82413 | 19984 ft | 420 kts | 178° |
| 2026-05-08 08:59 | 34.18492 | 33.82642 | 20471 ft | 423 kts | 178° |
| 2026-05-08 08:59 | 34.15582 | 33.82865 | 20937 ft | 427 kts | 179° |
| 2026-05-08 08:59 | 34.12608 | 33.83092 | 21398 ft | 430 kts | 179° |
| 2026-05-08 09:00 | 34.09614 | 33.83322 | 21859 ft | 433 kts | 179° |
| 2026-05-08 09:00 | 34.06596 | 33.83555 | 22304 ft | 436 kts | 179° |
| 2026-05-08 09:00 | 34.03556 | 33.83789 | 22748 ft | 439 kts | 179° |
| 2026-05-08 09:00 | 34.00493 | 33.84024 | 23127 ft | 443 kts | 179° |
| 2026-05-08 09:01 | 33.97386 | 33.84258 | 23119 ft | 451 kts | 179° |
| 2026-05-08 09:01 | 33.94242 | 33.84493 | 23136 ft | 453 kts | 179° |
| 2026-05-08 09:01 | 33.91156 | 33.84727 | 23124 ft | 449 kts | 179° |
| 2026-05-08 09:01 | 33.88044 | 33.84963 | 23125 ft | 448 kts | 179° |
| 2026-05-08 09:02 | 33.84926 | 33.85198 | 23133 ft | 449 kts | 179° |
| 2026-05-08 09:02 | 33.81804 | 33.85433 | 23138 ft | 450 kts | 179° |
| 2026-05-08 09:02 | 33.78678 | 33.85673 | 23135 ft | 451 kts | 179° |
| 2026-05-08 09:02 | 33.75545 | 33.85917 | 23134 ft | 451 kts | 179° |
| 2026-05-08 09:03 | 33.72415 | 33.86163 | 23129 ft | 451 kts | 179° |
| 2026-05-08 09:03 | 33.69281 | 33.86409 | 23135 ft | 451 kts | 179° |
| 2026-05-08 09:03 | 33.66197 | 33.86651 | 23129 ft | 450 kts | 179° |
| 2026-05-08 09:03 | 33.63071 | 33.86895 | 23128 ft | 450 kts | 179° |
| 2026-05-08 09:04 | 33.59944 | 33.87139 | 23134 ft | 450 kts | 179° |
| 2026-05-08 09:04 | 33.56825 | 33.87382 | 23132 ft | 449 kts | 179° |
| 2026-05-08 09:04 | 33.53701 | 33.87625 | 23133 ft | 449 kts | 179° |
| 2026-05-08 09:04 | 33.50586 | 33.87866 | 23134 ft | 449 kts | 179° |
| 2026-05-08 09:05 | 33.47466 | 33.88108 | 23127 ft | 449 kts | 179° |
| 2026-05-08 09:05 | 33.44347 | 33.88350 | 23131 ft | 449 kts | 179° |
| 2026-05-08 09:05 | 33.41229 | 33.88592 | 23138 ft | 449 kts | 179° |
| 2026-05-08 09:05 | 33.38153 | 33.88830 | 23128 ft | 449 kts | 179° |
| 2026-05-08 09:06 | 33.35039 | 33.89140 | 23122 ft | 449 kts | 174° |
| 2026-05-08 09:06 | 33.32058 | 33.90080 | 22880 ft | 441 kts | 159° |
| 2026-05-08 09:06 | 33.29303 | 33.91598 | 22663 ft | 431 kts | 155° |
| 2026-05-08 09:06 | 33.26615 | 33.93093 | 22381 ft | 421 kts | 158° |
| 2026-05-08 09:07 | 33.23918 | 33.94355 | 22110 ft | 412 kts | 162° |
| 2026-05-08 09:07 | 33.21227 | 33.95469 | 21847 ft | 406 kts | 163° |
| 2026-05-08 09:07 | 33.18564 | 33.96547 | 21448 ft | 403 kts | 163° |
| 2026-05-08 09:07 | 33.15962 | 33.97624 | 21036 ft | 400 kts | 162° |
| 2026-05-08 09:08 | 33.13354 | 33.98738 | 20610 ft | 397 kts | 162° |
| 2026-05-08 09:08 | 33.10771 | 33.99871 | 20169 ft | 394 kts | 161° |
| 2026-05-08 09:08 | 33.08211 | 34.01015 | 19742 ft | 392 kts | 160° |
| 2026-05-08 09:08 | 33.05719 | 34.02315 | 19416 ft | 389 kts | 155° |
| 2026-05-08 09:09 | 33.03347 | 34.03807 | 19210 ft | 383 kts | 152° |
| 2026-05-08 09:09 | 33.01049 | 34.05440 | 18966 ft | 387 kts | 149° |
| 2026-05-08 09:09 | 32.98798 | 34.07171 | 18595 ft | 385 kts | 148° |
| 2026-05-08 09:09 | 32.96562 | 34.08909 | 18161 ft | 382 kts | 148° |
| 2026-05-08 09:10 | 32.94333 | 34.10611 | 17719 ft | 379 kts | 149° |
| 2026-05-08 09:10 | 32.92132 | 34.12250 | 17290 ft | 377 kts | 149° |
| 2026-05-08 09:10 | 32.89905 | 34.13875 | 16866 ft | 374 kts | 150° |
| 2026-05-08 09:10 | 32.87745 | 34.15582 | 16491 ft | 373 kts | 140° |
| 2026-05-08 09:11 | 32.85894 | 34.17711 | 16312 ft | 367 kts | 134° |
| 2026-05-08 09:11 | 32.84138 | 34.19927 | 16055 ft | 371 kts | 134° |
| 2026-05-08 09:11 | 32.82306 | 34.22114 | 15811 ft | 375 kts | 137° |
| 2026-05-08 09:11 | 32.80376 | 34.24203 | 15574 ft | 376 kts | 139° |
| 2026-05-08 09:12 | 32.78415 | 34.26249 | 15334 ft | 374 kts | 139° |
| 2026-05-08 09:12 | 32.76492 | 34.28253 | 15092 ft | 372 kts | 139° |
| 2026-05-08 09:12 | 32.74557 | 34.30295 | 14855 ft | 371 kts | 139° |
| 2026-05-08 09:12 | 32.72644 | 34.32340 | 14616 ft | 370 kts | 138° |
| 2026-05-08 09:13 | 32.70742 | 34.34392 | 14381 ft | 369 kts | 138° |
| 2026-05-08 09:13 | 32.68851 | 34.36444 | 14146 ft | 368 kts | 138° |
| 2026-05-08 09:13 | 32.66968 | 34.38496 | 13918 ft | 367 kts | 138° |
| 2026-05-08 09:13 | 32.65091 | 34.40543 | 13667 ft | 366 kts | 138° |
| 2026-05-08 09:14 | 32.63244 | 34.42560 | 13413 ft | 365 kts | 138° |
| 2026-05-08 09:14 | 32.61379 | 34.44595 | 13148 ft | 364 kts | 138° |
| 2026-05-08 09:14 | 32.59517 | 34.46625 | 12890 ft | 363 kts | 138° |
| 2026-05-08 09:14 | 32.57662 | 34.48647 | 12640 ft | 362 kts | 138° |
| 2026-05-08 09:15 | 32.55808 | 34.50666 | 12392 ft | 362 kts | 138° |
| 2026-05-08 09:15 | 32.53959 | 34.52679 | 12139 ft | 359 kts | 138° |
| 2026-05-08 09:15 | 32.52122 | 34.54677 | 11894 ft | 357 kts | 138° |
| 2026-05-08 09:15 | 32.50300 | 34.56658 | 11647 ft | 355 kts | 138° |
| 2026-05-08 09:16 | 32.48511 | 34.58602 | 11405 ft | 352 kts | 138° |
| 2026-05-08 09:16 | 32.46715 | 34.60551 | 11161 ft | 349 kts | 138° |
| 2026-05-08 09:16 | 32.44937 | 34.62482 | 10916 ft | 345 kts | 138° |
| 2026-05-08 09:16 | 32.43176 | 34.64391 | 10676 ft | 341 kts | 138° |
| 2026-05-08 09:17 | 32.42534 | 34.65088 | 10590 ft | 340 kts | 138° |
| 2026-05-08 09:17 | 32.40794 | 34.66974 | 10353 ft | 337 kts | 138° |
| 2026-05-08 09:17 | 32.39072 | 34.68839 | 10120 ft | 334 kts | 138° |
| 2026-05-08 09:17 | 32.37364 | 34.70688 | 9877 ft | 332 kts | 139° |
| 2026-05-08 09:18 | 32.35675 | 34.72518 | 9601 ft | 323 kts | 139° |
| 2026-05-08 09:18 | 32.34076 | 34.74249 | 9329 ft | 309 kts | 139° |
| 2026-05-08 09:18 | 32.32518 | 34.75933 | 9069 ft | 298 kts | 139° |
| 2026-05-08 09:18 | 32.31008 | 34.77565 | 8816 ft | 292 kts | 139° |
| 2026-05-08 09:19 | 32.29519 | 34.79173 | 8564 ft | 288 kts | 139° |
| 2026-05-08 09:19 | 32.28042 | 34.80767 | 8314 ft | 286 kts | 139° |
| 2026-05-08 09:19 | 32.26582 | 34.82342 | 8065 ft | 283 kts | 140° |
| 2026-05-08 09:19 | 32.25130 | 34.83907 | 7862 ft | 283 kts | 140° |
| 2026-05-08 09:20 | 32.23669 | 34.85480 | 7586 ft | 285 kts | 139° |
| 2026-05-08 09:20 | 32.22224 | 34.87037 | 7344 ft | 284 kts | 139° |
| 2026-05-08 09:20 | 32.20786 | 34.88586 | 7091 ft | 275 kts | 139° |
| 2026-05-08 09:20 | 32.19395 | 34.90083 | 6830 ft | 266 kts | 140° |
| 2026-05-08 09:21 | 32.18045 | 34.91535 | 6609 ft | 260 kts | 139° |
| 2026-05-08 09:21 | 32.16715 | 34.92966 | 6371 ft | 257 kts | 139° |
| 2026-05-08 09:22 | 32.08918 | 35.01340 | 4890 ft | 253 kts | 138° |
| 2026-05-08 09:23 | 32.07611 | 35.02740 | 4632 ft | 254 kts | 137° |
| 2026-05-08 09:23 | 32.06299 | 35.04149 | 4405 ft | 256 kts | 137° |
| 2026-05-08 09:23 | 32.04980 | 35.05565 | 4153 ft | 258 kts | 137° |
| 2026-05-08 09:23 | 32.03673 | 35.06967 | 4034 ft | 246 kts | 137° |
| 2026-05-08 09:24 | 32.02455 | 35.08271 | 3985 ft | 228 kts | 137° |
| 2026-05-08 09:24 | 32.01329 | 35.09478 | 3954 ft | 210 kts | 137° |
| 2026-05-08 09:24 | 32.00271 | 35.10609 | 4001 ft | 210 kts | 137° |
| 2026-05-08 09:24 | 31.99196 | 35.11757 | 3994 ft | 206 kts | 137° |
| 2026-05-08 09:25 | 31.98148 | 35.12884 | 3989 ft | 203 kts | 136° |
| 2026-05-08 09:25 | 31.97117 | 35.13992 | 4020 ft | 199 kts | 137° |
| 2026-05-08 09:25 | 31.96078 | 35.15101 | 3992 ft | 202 kts | 137° |
| 2026-05-08 09:25 | 31.94913 | 35.16009 | 3946 ft | 204 kts | 169° |
| 2026-05-08 09:26 | 31.93519 | 35.15992 | 3977 ft | 203 kts | 192° |
| 2026-05-08 09:26 | 31.92160 | 35.15547 | 3994 ft | 204 kts | 197° |
| 2026-05-08 09:26 | 31.90804 | 35.15069 | 4001 ft | 205 kts | 202° |
| 2026-05-08 09:26 | 31.89773 | 35.13976 | 3984 ft | 203 kts | 248° |
| 2026-05-08 09:27 | 31.89592 | 35.12369 | 3919 ft | 203 kts | 273° |
| 2026-05-08 09:27 | 31.89664 | 35.10697 | 3777 ft | 206 kts | 272° |
| 2026-05-08 09:27 | 31.89764 | 35.09036 | 3646 ft | 202 kts | 283° |
| 2026-05-08 09:27 | 31.90417 | 35.07639 | 3569 ft | 192 kts | 311° |
| 2026-05-08 09:28 | 31.91227 | 35.06358 | 3435 ft | 197 kts | 303° |
| 2026-05-08 09:28 | 31.91936 | 35.04968 | 3285 ft | 202 kts | 303° |
| 2026-05-08 09:28 | 31.92675 | 35.03530 | 3010 ft | 206 kts | 298° |
| 2026-05-08 09:28 | 31.93333 | 35.02054 | 2713 ft | 206 kts | 303° |
| 2026-05-08 09:29 | 31.94111 | 35.00665 | 2443 ft | 202 kts | 304° |
| 2026-05-08 09:29 | 31.94881 | 34.99311 | 2149 ft | 194 kts | 303° |
| 2026-05-08 09:29 | 31.95571 | 34.97998 | 1880 ft | 183 kts | 304° |
| 2026-05-08 09:29 | 31.96199 | 34.96756 | 1653 ft | 171 kts | 303° |
| 2026-05-08 09:30 | 31.96781 | 34.95578 | 1407 ft | 161 kts | 302° |
| 2026-05-08 09:30 | 31.97349 | 34.94495 | 1202 ft | 150 kts | 304° |
| 2026-05-08 09:30 | 31.97894 | 34.93457 | 994 ft | 152 kts | 303° |
| 2026-05-08 09:30 | 31.98432 | 34.92414 | 777 ft | 148 kts | 301° |
| 2026-05-08 09:31 | 31.98960 | 34.91417 | 582 ft | 142 kts | 302° |
| 2026-05-08 09:31 | 31.99476 | 34.90440 | 360 ft | 138 kts | 301° |
| 2026-05-08 09:31 | 31.99970 | 34.89492 | 164 ft | 131 kts | 301° |
| 2026-05-08 09:31 | 32.00412 | 34.88647 | 119 ft | 110 kts | 300° |
| 2026-05-08 09:32 | 32.00755 | 34.87966 | 117 ft | 79 kts | 301° |
| 2026-05-08 09:32 | 32.00956 | 34.87572 | 118 ft | 43 kts | 301° |
| 2026-05-08 09:32 | 32.01046 | 34.87358 | 119 ft | 27 kts | 285° |
| 2026-05-08 09:32 | 32.01062 | 34.87152 | 119 ft | 12 kts | 272° |
| 2026-05-08 09:33 | 32.01047 | 34.87062 | 115 ft | 11 kts | 233° |
| 2026-05-08 09:33 | 32.00991 | 34.87079 | 116 ft | 10 kts | 122° |
| 2026-05-08 09:33 | 32.00957 | 34.87146 | 119 ft | 9 kts | 121° |
| 2026-05-08 09:33 | 32.00923 | 34.87211 | 118 ft | 9 kts | 121° |
| 2026-05-08 09:34 | 32.00888 | 34.87280 | 118 ft | 12 kts | 121° |
| 2026-05-08 09:34 | 32.00841 | 34.87372 | 119 ft | 13 kts | 121° |
| 2026-05-08 09:34 | 32.00794 | 34.87463 | 116 ft | 13 kts | 121° |
| 2026-05-08 09:34 | 32.00749 | 34.87553 | 116 ft | 13 kts | 121° |
| 2026-05-08 09:35 | 32.00704 | 34.87639 | 118 ft | 12 kts | 123° |
| 2026-05-08 09:35 | 32.00658 | 34.87723 | 117 ft | 12 kts | 122° |
| 2026-05-08 09:35 | 32.00615 | 34.87803 | 115 ft | 10 kts | 122° |
| 2026-05-08 09:35 | 32.00578 | 34.87868 | 119 ft | 10 kts | 136° |
| 2026-05-08 09:36 | 32.00520 | 34.87868 | 118 ft | 6 kts | 205° |
| 2026-05-08 09:36 | 32.00486 | 34.87847 | 117 ft | 7 kts | 211° |
| 2026-05-08 09:36 | 32.00432 | 34.87808 | 117 ft | 10 kts | 211° |
| 2026-05-08 09:36 | 32.00364 | 34.87759 | 119 ft | 12 kts | 211° |
| 2026-05-08 09:37 | 32.00295 | 34.87709 | 114 ft | 12 kts | 212° |
| 2026-05-08 09:37 | 32.00231 | 34.87663 | 116 ft | 9 kts | 210° |
| 2026-05-08 09:37 | 32.00199 | 34.87641 | 119 ft | 8 kts | 211° |
| 2026-05-08 09:37 | 32.00175 | 34.87580 | 118 ft | 6 kts | 262° |
| 2026-05-08 09:38 | 32.00170 | 34.87535 | 118 ft | 6 kts | 263° |
| 2026-05-08 09:38 | 32.00169 | 34.87523 | 118 ft | 2 kts | 261° |
| 2026-05-08 09:38 | 32.00166 | 34.87505 | 119 ft | 1 kts | 261° |